This is the latest recevied weather packets stored in our database for station/object KQ4UWH. If no packets are shown the sender has not sent any weather packets the latest 10 day(s).
| Time | Temp. | Humidity | Pressure | Rain* | Wind** | Luminosity | Snow |
|---|---|---|---|---|---|---|---|
| 1778010578 | 27.22° C | 34% | 1239.7 hPa | 0 mm | - | 641 W/m² | - |
| 1778010275 | 27.78° C | 33% | 1239.7 hPa | 0 mm | - | 647 W/m² | - |
| 1778009975 | 27.22° C | 34% | 1239.7 hPa | 0 mm | - | 659 W/m² | - |
| 1778009673 | 26.67° C | 34% | 1239.7 hPa | 0 mm | - | 659 W/m² | - |
| 1778009370 | 26.67° C | 35% | 1239.7 hPa | 0 mm | - | 677 W/m² | - |
| 1778009069 | 26.11° C | 38% | 1239.7 hPa | 0 mm | - | 688 W/m² | - |
| 1778008766 | 26.11° C | 35% | 1239.7 hPa | 0 mm | - | 697 W/m² | - |
| 1778008464 | 26.11° C | 35% | 1239.7 hPa | 0 mm | - | 701 W/m² | - |
| 1778008161 | 26.67° C | 35% | 1239.7 hPa | 0 mm | - | 712 W/m² | - |
| 1778007856 | 26.11° C | 38% | 1239.7 hPa | 0 mm | - | 714 W/m² | - |
| 1778007551 | 26.11° C | 37% | 1239.7 hPa | 0 mm | - | 729 W/m² | - |
| 1778007249 | 26.11° C | 37% | 1239.7 hPa | 0 mm | - | 122 W/m² | - |
| 1778006945 | 25.56° C | 40% | 1239.7 hPa | 0 mm | - | 202 W/m² | - |
| 1778006642 | 26.11° C | 37% | 1239.7 hPa | 0 mm | - | 529 W/m² | - |
| 1778006339 | 25.56° C | 37% | 1239.7 hPa | 0 mm | - | 749 W/m² | - |
| 1778006035 | 26.11° C | 36% | 1239.7 hPa | 0 mm | - | 767 W/m² | - |
| 1778005732 | 25.56° C | 38% | 1239.7 hPa | 0 mm | - | 745 W/m² | - |
| 1778005429 | 25.56° C | 39% | 1239.7 hPa | 0 mm | - | 766 W/m² | - |
| 1778005126 | 25.56° C | 38% | 1239.7 hPa | 0 mm | - | 707 W/m² | - |
| 1778004823 | 26.11° C | 39% | 1239.7 hPa | 0 mm | - | 621 W/m² | - |
| 1778004520 | 26.11° C | 37% | 1239.7 hPa | 0 mm | - | 631 W/m² | - |
| 1778004216 | 26.11° C | 40% | 1239.7 hPa | 0 mm | - | 690 W/m² | - |
| 1778003913 | 25.56° C | 39% | 1239.7 hPa | 0 mm | - | 751 W/m² | - |
| 1778003609 | 25° C | 40% | 1239.7 hPa | 0 mm | - | 750 W/m² | - |
| 1778003306 | 25.56° C | 37% | 1239.7 hPa | 0 mm | - | 760 W/m² | - |
* Rain latest hour (hover to see other rain measurements)
** Current wind speed in m/s (hover to see current wind gust speed)